Time;durP1;ratioP1;P1;durP2;ratioP2;P2;SDS_P1;SDS_P2;PMS_P1;PMS_P2;Temp;Humidity;BMP_temperature;BMP_pressure;BME280_temperature;BME280_humidity;BME280_pressure;Samples;Min_cycle;Max_cycle;Signal;HPM_P1;HPM_P2
2023/04/03 00:01:44;;;;;;;1.75;1.60;;;9.40;75.10;;;;;;5053390;28;20048;-87
2023/04/03 00:04:10;;;;;;;1.48;1.38;;;9.40;75.20;;;;;;5028791;28;20030;-88
2023/04/03 00:06:36;;;;;;;2.28;1.83;;;9.40;75.20;;;;;;5072161;28;20032;-87
2023/04/03 00:09:02;;;;;;;2.25;1.83;;;9.40;75.20;;;;;;5056038;28;20024;-87
2023/04/03 00:11:28;;;;;;;2.58;1.65;;;9.30;75.20;;;;;;5068932;28;20469;-87
2023/04/03 00:13:54;;;;;;;2.03;1.50;;;9.30;75.20;;;;;;5046952;28;20029;-86
2023/04/03 00:16:20;;;;;;;1.70;1.50;;;9.30;75.20;;;;;;5053371;28;20082;-88
2023/04/03 00:18:46;;;;;;;2.50;1.60;;;9.20;75.10;;;;;;5068100;28;20440;-86
2023/04/03 00:21:14;;;;;;;2.38;1.60;;;9.30;75.20;;;;;;5033197;28;20377;-89
2023/04/03 00:23:40;;;;;;;1.73;1.60;;;9.20;75.20;;;;;;5072452;28;20070;-87
2023/04/03 00:26:05;;;;;;;2.60;1.80;;;9.20;75.20;;;;;;5071281;28;20044;-87
2023/04/03 00:28:32;;;;;;;2.50;1.50;;;9.20;75.20;;;;;;5013436;28;20040;-86
2023/04/03 00:30:58;;;;;;;1.50;1.40;;;9.20;75.20;;;;;;5031704;28;20060;-87
2023/04/03 00:33:27;;;;;;;2.22;1.50;;;9.10;75.10;;;;;;5052028;28;20051;-85
2023/04/03 00:35:52;;;;;;;1.70;1.50;;;9.10;75.20;;;;;;5065039;28;20536;-89
2023/04/03 00:38:19;;;;;;;1.70;1.40;;;9.10;75.10;;;;;;5070872;28;20025;-86
2023/04/03 00:40:47;;;;;;;1.60;1.50;;;9.00;75.10;;;;;;5051801;28;20032;-87
2023/04/03 00:43:27;;;;;;;2.15;1.48;;;9.00;75.10;;;;;;5051554;28;20059;-87
2023/04/03 00:45:58;;;;;;;2.38;1.52;;;9.00;75.10;;;;;;5067836;28;20127;-87
2023/04/03 00:48:32;;;;;;;1.75;1.65;;;9.00;75.10;;;;;;5060337;28;20038;-86
2023/04/03 00:50:59;;;;;;;1.60;1.50;;;9.00;75.20;;;;;;5069028;28;20017;-86
2023/04/03 00:53:38;;;;;;;2.05;1.67;;;9.00;75.20;;;;;;5068750;28;20240;-86
2023/04/03 00:56:10;;;;;;;1.60;1.50;;;8.90;75.20;;;;;;5068876;28;20024;-86
2023/04/03 00:59:08;;;;;;;2.03;1.50;;;8.90;75.20;;;;;;5052188;28;20028;-86
2023/04/03 01:01:34;;;;;;;1.70;1.60;;;8.80;75.20;;;;;;5038855;28;20124;-87
2023/04/03 01:04:02;;;;;;;2.45;1.63;;;8.90;75.20;;;;;;5053764;28;20074;-87
2023/04/03 01:06:33;;;;;;;1.70;1.60;;;8.80;75.20;;;;;;5069900;28;20131;-86
2023/04/03 01:09:05;;;;;;;1.95;1.50;;;8.80;75.20;;;;;;5046803;28;20033;-87
2023/04/03 01:11:33;;;;;;;2.83;1.70;;;8.80;75.20;;;;;;5064630;28;20385;-86
2023/04/03 01:14:01;;;;;;;2.97;1.60;;;8.80;75.20;;;;;;5064380;28;20062;-86
2023/04/03 01:16:30;;;;;;;2.65;1.60;;;8.80;75.20;;;;;;5062548;28;20024;-87
2023/04/03 01:19:00;;;;;;;2.45;1.83;;;8.70;75.20;;;;;;5053111;28;20476;-87
2023/04/03 01:22:07;;;;;;;1.90;1.73;;;8.70;75.20;;;;;;5063332;28;20070;-87
2023/04/03 01:24:38;;;;;;;1.67;1.52;;;8.70;75.20;;;;;;5050718;28;20036;-87
2023/04/03 01:27:09;;;;;;;2.30;1.70;;;8.70;75.20;;;;;;5069612;28;20512;-86
2023/04/03 01:29:35;;;;;;;1.75;1.52;;;8.60;75.20;;;;;;5068731;28;20036;-86
2023/04/03 01:32:02;;;;;;;2.00;1.90;;;8.60;75.20;;;;;;5052272;28;20021;-86
2023/04/03 01:34:30;;;;;;;1.95;1.60;;;8.60;75.20;;;;;;5069397;28;20491;-86
2023/04/03 01:36:56;;;;;;;2.17;1.48;;;8.60;75.30;;;;;;5052429;28;20068;-87
2023/04/03 01:39:22;;;;;;;1.92;1.60;;;8.50;75.30;;;;;;5048603;28;20068;-88
2023/04/03 01:41:49;;;;;;;1.83;1.60;;;8.50;75.30;;;;;;5050216;28;20033;-86
2023/04/03 01:44:28;;;;;;;2.05;1.83;;;8.50;75.30;;;;;;5055316;28;21414;-86
2023/04/03 01:46:55;;;;;;;1.70;1.60;;;8.50;75.30;;;;;;5044733;28;20033;-85
2023/04/03 01:49:22;;;;;;;1.88;1.58;;;8.50;75.30;;;;;;5032286;28;20503;-85
2023/04/03 01:51:48;;;;;;;1.90;1.70;;;8.50;75.30;;;;;;5050578;28;20033;-86
2023/04/03 01:54:14;;;;;;;1.83;1.55;;;8.50;75.40;;;;;;5034748;28;20021;-87
2023/04/03 01:56:40;;;;;;;2.08;1.58;;;8.40;75.30;;;;;;5052884;28;20025;-85
2023/04/03 01:59:07;;;;;;;2.25;1.80;;;8.40;75.40;;;;;;5068403;28;20046;-86
2023/04/03 02:01:33;;;;;;;1.88;1.70;;;8.40;75.40;;;;;;5043589;28;20028;-86
2023/04/03 02:03:59;;;;;;;2.53;1.90;;;8.40;75.40;;;;;;5053262;28;20024;-85
2023/04/03 02:06:25;;;;;;;1.70;1.60;;;8.40;75.40;;;;;;5053945;28;20048;-85
2023/04/03 02:08:51;;;;;;;2.85;1.50;;;8.30;75.30;;;;;;5039615;28;20028;-85
2023/04/03 02:11:17;;;;;;;2.08;1.77;;;8.30;75.40;;;;;;5050821;28;20052;-87
2023/04/03 02:13:43;;;;;;;3.65;1.85;;;8.30;75.40;;;;;;5055763;28;20029;-88
2023/04/03 02:16:10;;;;;;;1.60;1.50;;;8.20;75.40;;;;;;5055561;28;20091;-85
2023/04/03 02:18:37;;;;;;;1.90;1.70;;;8.30;75.40;;;;;;5074522;28;20016;-87
2023/04/03 02:21:04;;;;;;;1.90;1.58;;;8.20;75.40;;;;;;5053538;28;20024;-86
2023/04/03 02:23:29;;;;;;;3.20;1.55;;;8.20;75.40;;;;;;5073453;28;20024;-85
2023/04/03 02:26:11;;;;;;;2.00;1.80;;;8.20;75.40;;;;;;5056793;28;20052;-86
2023/04/03 02:28:37;;;;;;;2.55;1.85;;;8.20;75.40;;;;;;5059232;28;20035;-86
2023/04/03 02:31:04;;;;;;;2.05;1.75;;;8.20;75.40;;;;;;5062158;28;20568;-86
2023/04/03 02:33:30;;;;;;;2.33;1.70;;;8.20;75.50;;;;;;5056238;28;20029;-86
2023/04/03 02:35:57;;;;;;;1.90;1.65;;;8.10;75.40;;;;;;5054287;28;20032;-85
2023/04/03 02:38:24;;;;;;;2.47;1.80;;;8.10;75.50;;;;;;5067699;28;20060;-86
2023/04/03 02:40:51;;;;;;;2.95;1.92;;;8.10;75.50;;;;;;5060455;28;20069;-85
2023/04/03 02:43:17;;;;;;;4.20;1.77;;;8.00;75.50;;;;;;5068505;28;20482;-86
2023/04/03 02:45:45;;;;;;;2.35;1.67;;;8.00;75.50;;;;;;5056690;28;20063;-85
2023/04/03 02:48:11;;;;;;;1.52;1.40;;;8.00;75.50;;;;;;5057121;28;20066;-86
2023/04/03 02:50:39;;;;;;;2.78;1.77;;;8.00;75.50;;;;;;5072662;28;20029;-86
2023/04/03 02:53:05;;;;;;;2.97;1.50;;;8.00;75.60;;;;;;5055653;28;20021;-86
2023/04/03 02:55:31;;;;;;;2.90;1.90;;;8.00;75.50;;;;;;5050423;28;20035;-86
2023/04/03 02:58:00;;;;;;;2.00;1.70;;;8.00;75.60;;;;;;5060486;28;20056;-85
2023/04/03 03:00:26;;;;;;;2.83;1.95;;;8.00;75.60;;;;;;5052503;28;20102;-86
2023/04/03 03:02:52;;;;;;;1.85;1.55;;;7.90;75.50;;;;;;5055672;28;20020;-86
2023/04/03 03:05:18;;;;;;;2.13;1.70;;;7.90;75.50;;;;;;5020771;28;20037;-87
2023/04/03 03:07:44;;;;;;;2.60;1.80;;;7.90;75.50;;;;;;5051186;28;20032;-87
2023/04/03 03:10:10;;;;;;;3.33;1.88;;;7.90;75.50;;;;;;5056143;28;20125;-86
2023/04/03 03:12:36;;;;;;;1.95;1.80;;;7.90;75.50;;;;;;5050422;28;20090;-87
2023/04/03 03:15:06;;;;;;;1.60;1.50;;;7.90;75.60;;;;;;5072840;28;20024;-85
2023/04/03 03:17:32;;;;;;;2.10;1.90;;;7.80;75.50;;;;;;5071824;28;20020;-86
2023/04/03 03:19:58;;;;;;;2.50;1.70;;;7.80;75.60;;;;;;5034831;28;20070;-84
2023/04/03 03:22:26;;;;;;;1.80;1.60;;;7.80;75.60;;;;;;5057221;28;20028;-86
2023/04/03 03:24:52;;;;;;;2.80;1.80;;;7.80;75.60;;;;;;5052273;28;21482;-85
2023/04/03 03:27:17;;;;;;;2.47;1.77;;;7.80;75.60;;;;;;5063039;28;20036;-86
2023/04/03 03:29:43;;;;;;;2.20;2.00;;;7.80;75.60;;;;;;5051088;28;20025;-86
2023/04/03 03:32:10;;;;;;;2.45;1.70;;;7.70;75.50;;;;;;5054299;28;20459;-85
2023/04/03 03:34:35;;;;;;;3.90;1.92;;;7.70;75.50;;;;;;5055522;28;20027;-88
2023/04/03 03:37:05;;;;;;;2.25;1.60;;;7.70;75.60;;;;;;5027377;28;20511;-86
2023/04/03 03:39:30;;;;;;;1.90;1.65;;;7.70;75.60;;;;;;5053998;28;20040;-86
2023/04/03 03:41:56;;;;;;;3.20;1.77;;;7.60;75.60;;;;;;5071477;28;20385;-86
2023/04/03 03:44:22;;;;;;;3.13;1.77;;;7.60;75.60;;;;;;5055225;28;20112;-85
2023/04/03 03:46:48;;;;;;;2.38;1.80;;;7.60;75.60;;;;;;5068032;28;20032;-85
2023/04/03 03:49:14;;;;;;;2.25;1.77;;;7.60;75.60;;;;;;5036505;28;20032;-85
2023/04/03 03:51:43;;;;;;;4.18;2.35;;;7.60;75.60;;;;;;5047557;28;20385;-86
2023/04/03 03:54:09;;;;;;;2.60;1.80;;;7.60;75.60;;;;;;5055955;28;20205;-85
2023/04/03 03:56:36;;;;;;;2.42;1.88;;;7.60;75.70;;;;;;5071935;28;20039;-86
2023/04/03 03:59:01;;;;;;;2.47;2.00;;;7.50;75.60;;;;;;5055003;28;20025;-85
2023/04/03 04:01:28;;;;;;;2.33;1.98;;;7.50;75.60;;;;;;5042314;28;20170;-85
2023/04/03 04:03:54;;;;;;;4.30;2.00;;;7.50;75.60;;;;;;5051569;28;20062;-86
2023/04/03 04:06:24;;;;;;;2.30;1.80;;;7.50;75.60;;;;;;5072772;28;20094;-86
2023/04/03 04:08:53;;;;;;;2.00;1.63;;;7.50;75.70;;;;;;5057613;28;20029;-88
2023/04/03 04:11:20;;;;;;;2.17;1.50;;;7.50;75.70;;;;;;5025655;28;20044;-88
2023/04/03 04:13:46;;;;;;;2.03;1.83;;;7.40;75.70;;;;;;5071658;28;20024;-86
2023/04/03 04:16:13;;;;;;;2.78;2.13;;;7.50;75.70;;;;;;5053966;28;20029;-86
2023/04/03 04:18:39;;;;;;;2.92;1.90;;;7.40;75.60;;;;;;5071211;28;20027;-85
2023/04/03 04:21:06;;;;;;;1.98;1.77;;;7.40;75.60;;;;;;5054330;28;20044;-86
2023/04/03 04:23:32;;;;;;;2.22;1.70;;;7.40;75.70;;;;;;5053429;28;20029;-86
2023/04/03 04:25:59;;;;;;;3.17;1.77;;;7.40;75.70;;;;;;5053579;28;20501;-87
2023/04/03 04:28:28;;;;;;;3.35;1.90;;;7.40;75.80;;;;;;5066893;28;20053;-86
2023/04/03 04:30:56;;;;;;;2.67;1.88;;;7.30;75.70;;;;;;5054749;28;20029;-86
2023/04/03 04:33:25;;;;;;;2.67;2.13;;;7.30;75.70;;;;;;5054563;28;20342;-87
2023/04/03 04:35:53;;;;;;;2.92;2.00;;;7.30;75.70;;;;;;5034342;28;20100;-87
2023/04/03 04:38:21;;;;;;;2.55;2.10;;;7.30;75.70;;;;;;5050088;28;20025;-86
2023/04/03 04:40:48;;;;;;;2.05;1.85;;;7.30;75.70;;;;;;5053488;28;20096;-88
2023/04/03 04:43:15;;;;;;;2.95;2.00;;;7.30;75.80;;;;;;5041901;28;20033;-86
2023/04/03 04:45:42;;;;;;;2.20;2.00;;;7.30;75.80;;;;;;5064324;28;20090;-88
2023/04/03 04:48:09;;;;;;;2.33;1.70;;;7.20;75.70;;;;;;5049472;28;20518;-85
2023/04/03 04:50:35;;;;;;;2.47;2.10;;;7.20;75.70;;;;;;5065929;28;20024;-87
2023/04/03 04:53:01;;;;;;;2.22;1.80;;;7.20;75.70;;;;;;5049470;28;20025;-87
2023/04/03 04:55:27;;;;;;;2.03;1.80;;;7.20;75.70;;;;;;5053613;28;20051;-87
2023/04/03 04:57:53;;;;;;;3.45;1.90;;;7.20;75.70;;;;;;5050335;28;20056;-88
2023/04/03 05:00:23;;;;;;;2.47;1.75;;;7.20;75.80;;;;;;5066917;28;20056;-87
2023/04/03 05:02:48;;;;;;;2.47;1.80;;;7.10;75.70;;;;;;5037699;28;20078;-88
2023/04/03 05:05:15;;;;;;;2.05;1.75;;;7.20;75.80;;;;;;5053675;28;20559;-88
2023/04/03 05:07:41;;;;;;;2.47;2.00;;;7.10;75.70;;;;;;5049013;28;20128;-87
2023/04/03 05:10:13;;;;;;;3.88;2.05;;;7.10;75.80;;;;;;5047671;28;20084;-88
2023/04/03 05:12:40;;;;;;;2.03;1.77;;;7.10;75.80;;;;;;5069450;28;20360;-89
2023/04/03 05:15:07;;;;;;;2.80;2.05;;;7.10;75.80;;;;;;5047514;28;20491;-86
2023/04/03 05:17:32;;;;;;;2.05;1.80;;;7.10;75.80;;;;;;5043399;28;20025;-86
2023/04/03 05:19:59;;;;;;;1.95;1.75;;;7.10;75.80;;;;;;5049706;28;20013;-87
2023/04/03 05:22:27;;;;;;;2.60;1.92;;;7.00;75.80;;;;;;5047063;28;20021;-87
2023/04/03 05:24:56;;;;;;;2.22;1.80;;;7.00;75.80;;;;;;5043558;28;20013;-87
2023/04/03 05:27:24;;;;;;;2.42;1.88;;;7.00;75.80;;;;;;5045495;28;20039;-85
2023/04/03 05:29:53;;;;;;;2.95;2.30;;;7.00;75.80;;;;;;5050884;28;20025;-86
2023/04/03 05:32:21;;;;;;;2.47;1.98;;;7.00;75.70;;;;;;5040072;28;20021;-87
2023/04/03 05:34:54;;;;;;;2.63;1.90;;;7.00;75.80;;;;;;5052320;28;20025;-84
2023/04/03 05:37:20;;;;;;;3.13;2.00;;;7.00;75.80;;;;;;5051062;28;20024;-85
2023/04/03 05:39:49;;;;;;;2.67;1.90;;;6.90;75.70;;;;;;5050764;28;20017;-89
2023/04/03 05:42:15;;;;;;;2.50;1.90;;;6.90;75.70;;;;;;5050614;28;20035;-85
2023/04/03 05:44:41;;;;;;;2.38;1.85;;;6.90;75.70;;;;;;5058092;28;20023;-86
2023/04/03 05:47:07;;;;;;;1.90;1.80;;;6.90;75.70;;;;;;5055325;28;20119;-86
2023/04/03 05:49:33;;;;;;;2.70;1.90;;;6.90;75.80;;;;;;5044551;28;21219;-87
2023/04/03 05:51:59;;;;;;;2.65;2.20;;;6.90;75.80;;;;;;5072115;28;20059;-87
2023/04/03 05:54:30;;;;;;;2.33;1.70;;;6.90;75.80;;;;;;5073874;28;20020;-86
2023/04/03 05:57:08;;;;;;;3.40;1.80;;;6.80;75.80;;;;;;5051816;28;20017;-86
2023/04/03 05:59:34;;;;;;;2.85;1.98;;;6.80;75.70;;;;;;5057453;28;20526;-85
2023/04/03 06:02:03;;;;;;;2.60;2.08;;;6.80;75.70;;;;;;5036555;28;20016;-87
2023/04/03 06:04:29;;;;;;;2.22;1.85;;;6.80;75.80;;;;;;5054012;28;20279;-86
2023/04/03 06:06:57;;;;;;;3.67;2.08;;;6.80;75.80;;;;;;5053047;28;20473;-86
2023/04/03 06:09:28;;;;;;;2.75;1.98;;;6.80;75.80;;;;;;5055982;28;20145;-87
2023/04/03 06:11:55;;;;;;;2.20;2.00;;;6.80;75.80;;;;;;5057209;28;20021;-86
2023/04/03 06:14:23;;;;;;;2.53;2.10;;;6.70;75.80;;;;;;5053696;28;20029;-86
2023/04/03 06:16:49;;;;;;;2.90;1.88;;;6.70;75.80;;;;;;5058720;28;20040;-87
2023/04/03 06:19:15;;;;;;;3.22;1.92;;;6.70;75.80;;;;;;5074612;28;20017;-87
2023/04/03 06:21:47;;;;;;;2.10;1.75;;;6.70;75.80;;;;;;5052548;28;20033;-88
2023/04/03 06:24:15;;;;;;;2.63;2.05;;;6.70;75.80;;;;;;5057610;28;20021;-87
2023/04/03 06:26:41;;;;;;;2.65;2.05;;;6.70;75.80;;;;;;5072794;28;20052;-85
2023/04/03 06:29:08;;;;;;;2.40;2.00;;;6.70;75.80;;;;;;5065178;28;20104;-87
2023/04/03 06:31:37;;;;;;;3.15;2.10;;;6.70;75.80;;;;;;5066575;28;20039;-85
2023/04/03 06:34:03;;;;;;;2.25;2.05;;;6.70;75.80;;;;;;5041362;28;20029;-86
2023/04/03 06:36:32;;;;;;;3.40;1.88;;;6.70;75.80;;;;;;5056284;28;20473;-86
2023/04/03 06:38:58;;;;;;;3.53;2.33;;;6.60;75.80;;;;;;5056139;28;20032;-86
2023/04/03 06:41:25;;;;;;;3.30;1.88;;;6.60;75.70;;;;;;5036911;28;20044;-88
2023/04/03 06:43:51;;;;;;;2.00;1.85;;;6.60;75.80;;;;;;5062153;28;20035;-88
2023/04/03 06:46:19;;;;;;;2.47;1.88;;;6.60;75.70;;;;;;5064992;28;20020;-88
2023/04/03 06:48:47;;;;;;;2.60;2.10;;;6.60;75.80;;;;;;5069416;28;20043;-88
2023/04/03 06:51:26;;;;;;;2.20;1.80;;;6.60;75.80;;;;;;5051869;28;20024;-87
2023/04/03 06:53:53;;;;;;;3.25;1.80;;;6.60;75.80;;;;;;5053115;28;20103;-87
2023/04/03 06:56:20;;;;;;;2.67;2.00;;;6.60;75.80;;;;;;5064007;28;20153;-87
2023/04/03 06:58:46;;;;;;;2.45;1.80;;;6.60;75.80;;;;;;5066378;28;20079;-87
2023/04/03 07:01:14;;;;;;;2.47;1.95;;;6.60;75.70;;;;;;5070933;28;20039;-89
2023/04/03 07:03:41;;;;;;;2.30;1.88;;;6.60;75.70;;;;;;5072294;28;20032;-86
2023/04/03 07:06:14;;;;;;;3.00;1.90;;;6.60;75.70;;;;;;5054937;28;20047;-87
2023/04/03 07:08:41;;;;;;;2.17;1.95;;;6.60;75.70;;;;;;5052763;28;20148;-86
2023/04/03 07:11:07;;;;;;;2.95;2.17;;;6.60;75.70;;;;;;5052082;28;20021;-87
2023/04/03 07:13:33;;;;;;;2.50;1.95;;;6.60;75.70;;;;;;5065848;28;20036;-86
2023/04/03 07:15:59;;;;;;;2.75;1.90;;;6.60;75.70;;;;;;5036907;28;20040;-86
2023/04/03 07:18:26;;;;;;;2.85;2.00;;;6.60;75.70;;;;;;5068215;28;20028;-86
2023/04/03 07:20:52;;;;;;;2.53;1.80;;;6.60;75.70;;;;;;5053634;28;20124;-86
2023/04/03 07:23:18;;;;;;;3.42;2.20;;;6.50;75.70;;;;;;5056931;28;20064;-88
2023/04/03 07:25:49;;;;;;;2.22;1.98;;;6.60;75.70;;;;;;5040907;28;20053;-86
2023/04/03 07:28:16;;;;;;;2.38;1.95;;;6.60;75.70;;;;;;5070778;28;20022;-83
2023/04/03 07:30:54;;;;;;;2.75;2.10;;;6.60;75.70;;;;;;5048983;28;20120;-85
2023/04/03 07:33:22;;;;;;;2.55;2.00;;;6.60;75.70;;;;;;5054651;28;20025;-86
2023/04/03 07:35:48;;;;;;;2.45;1.90;;;6.60;75.70;;;;;;5068456;28;20119;-86
2023/04/03 07:38:15;;;;;;;2.47;1.90;;;6.50;75.70;;;;;;5044682;28;20188;-86
2023/04/03 07:40:46;;;;;;;2.80;2.08;;;6.50;75.70;;;;;;5053217;28;20020;-87
2023/04/03 07:43:15;;;;;;;2.45;1.92;;;6.50;75.70;;;;;;5071883;28;20052;-86
2023/04/03 07:45:43;;;;;;;2.38;1.90;;;6.50;75.70;;;;;;5068435;28;20381;-85
2023/04/03 07:48:10;;;;;;;3.70;2.10;;;6.60;75.70;;;;;;5071538;28;20469;-86
2023/04/03 07:50:36;;;;;;;2.50;1.95;;;6.50;75.70;;;;;;5052079;28;20028;-85
2023/04/03 07:53:03;;;;;;;2.90;1.90;;;6.60;75.70;;;;;;5049167;28;20032;-85
2023/04/03 07:55:28;;;;;;;2.65;1.85;;;6.50;75.70;;;;;;5054755;28;20048;-86
2023/04/03 07:57:55;;;;;;;2.65;2.08;;;6.50;75.70;;;;;;5051070;28;20056;-85
2023/04/03 08:00:21;;;;;;;2.97;2.13;;;6.50;75.70;;;;;;5036803;28;20045;-85
2023/04/03 08:02:51;;;;;;;3.08;2.20;;;6.50;75.70;;;;;;5049125;28;20033;-86
2023/04/03 08:05:21;;;;;;;3.47;2.10;;;6.50;75.70;;;;;;5065952;28;20120;-86
2023/04/03 08:07:47;;;;;;;2.33;1.90;;;6.60;75.80;;;;;;5048148;28;20060;-86
2023/04/03 08:10:14;;;;;;;2.17;1.98;;;6.50;75.70;;;;;;5064262;28;20031;-85
2023/04/03 08:12:41;;;;;;;3.22;2.03;;;6.60;75.70;;;;;;5048542;28;20017;-86
2023/04/03 08:15:08;;;;;;;2.28;1.88;;;6.50;75.60;;;;;;5053669;28;20029;-85
2023/04/03 08:17:34;;;;;;;2.10;1.88;;;6.60;75.70;;;;;;5069622;28;20108;-86
2023/04/03 08:20:02;;;;;;;2.63;1.70;;;6.50;76.20;;;;;;5069446;28;20025;-86
2023/04/03 08:22:29;;;;;;;2.88;1.80;;;6.60;75.70;;;;;;5015629;28;20040;-86
2023/04/03 08:24:55;;;;;;;2.25;1.83;;;6.60;75.70;;;;;;5047840;28;20025;-87
2023/04/03 08:27:21;;;;;;;2.58;2.08;;;6.60;75.60;;;;;;5054163;28;20057;-88
2023/04/03 08:29:46;;;;;;;3.03;2.03;;;6.60;75.60;;;;;;5070409;28;20115;-86
2023/04/03 08:32:12;;;;;;;2.60;1.83;;;6.60;75.60;;;;;;5049929;28;20024;-87
2023/04/03 08:34:39;;;;;;;2.15;1.90;;;6.60;75.50;;;;;;5068533;28;20344;-83
2023/04/03 08:37:05;;;;;;;2.72;1.85;;;6.60;75.50;;;;;;5050831;28;20128;-87
2023/04/03 08:39:31;;;;;;;2.47;1.92;;;6.60;75.50;;;;;;5064205;28;20048;-87
2023/04/03 08:42:02;;;;;;;2.63;1.90;;;6.60;75.50;;;;;;5036674;28;20467;-85
2023/04/03 08:44:55;;;;;;;2.10;1.90;;;6.60;75.50;;;;;;5051089;28;20397;-86
2023/04/03 08:47:37;;;;;;;2.28;1.90;;;6.60;75.50;;;;;;5054074;28;20079;-88
2023/04/03 08:50:08;;;;;;;3.33;1.75;;;6.70;75.50;;;;;;5051478;28;20108;-87
2023/04/03 08:52:41;;;;;;;2.70;1.73;;;6.70;75.30;;;;;;5070223;28;20060;-86
2023/04/03 08:55:30;;;;;;;2.28;1.70;;;6.70;75.30;;;;;;5053620;28;20021;-87
2023/04/03 08:58:04;;;;;;;1.77;1.67;;;6.80;75.30;;;;;;5047858;28;20025;-85
2023/04/03 09:01:00;;;;;;;2.25;1.70;;;6.80;75.10;;;;;;5063545;28;20078;-85
2023/04/03 09:03:32;;;;;;;1.50;1.40;;;6.80;75.10;;;;;;5050658;28;20137;-85
2023/04/03 09:06:20;;;;;;;2.10;1.80;;;6.90;75.00;;;;;;5063144;28;20547;-86
2023/04/03 09:09:05;;;;;;;1.60;1.50;;;7.00;75.00;;;;;;5060666;28;20031;-86
2023/04/03 09:11:50;;;;;;;2.80;1.90;;;7.00;74.90;;;;;;5066493;28;20025;-85
2023/04/03 09:14:31;;;;;;;1.90;1.70;;;7.10;74.80;;;;;;5067399;28;20107;-85
2023/04/03 09:17:27;;;;;;;2.75;1.80;;;7.10;74.70;;;;;;5059101;28;20040;-85
2023/04/03 09:20:01;;;;;;;2.58;1.63;;;7.20;74.60;;;;;;5069969;28;20074;-85
2023/04/03 09:22:31;;;;;;;2.03;1.60;;;7.30;74.50;;;;;;5056212;28;20032;-86
2023/04/03 09:25:21;;;;;;;1.77;1.67;;;7.30;74.50;;;;;;5054965;28;20024;-85
2023/04/03 09:27:48;;;;;;;2.13;1.63;;;7.40;74.50;;;;;;5069762;28;20037;-87
2023/04/03 09:30:25;;;;;;;2.13;1.60;;;7.40;74.30;;;;;;5062715;28;20415;-85
2023/04/03 09:32:54;;;;;;;1.60;1.50;;;7.50;74.30;;;;;;5066531;28;20025;-86
2023/04/03 09:35:28;;;;;;;1.85;1.40;;;7.60;74.20;;;;;;5048602;28;20411;-86
2023/04/03 09:38:00;;;;;;;3.05;1.50;;;7.60;74.20;;;;;;5054015;28;20099;-86
2023/04/03 09:40:27;;;;;;;2.28;1.60;;;7.70;74.00;;;;;;5060669;28;20031;-85
2023/04/03 09:42:56;;;;;;;1.65;1.55;;;7.80;74.00;;;;;;5044365;28;20029;-85
2023/04/03 09:45:34;;;;;;;2.40;1.48;;;7.90;74.00;;;;;;5057919;28;20037;-85
2023/04/03 09:48:08;;;;;;;1.58;1.48;;;8.00;73.90;;;;;;5052994;28;20056;-86
2023/04/03 09:50:36;;;;;;;1.50;1.40;;;8.00;73.80;;;;;;5052806;28;20396;-86
2023/04/03 09:53:07;;;;;;;1.55;1.45;;;8.10;73.70;;;;;;5051915;28;20028;-85
2023/04/03 09:55:45;;;;;;;1.40;1.30;;;8.20;73.70;;;;;;5049946;28;20029;-84
2023/04/03 09:58:30;;;;;;;1.58;1.45;;;8.20;73.60;;;;;;5047177;28;20461;-85
2023/04/03 10:00:59;;;;;;;1.63;1.52;;;8.30;73.50;;;;;;5065897;28;20024;-85
2023/04/03 10:03:30;;;;;;;1.17;1.17;;;8.40;73.40;;;;;;5050771;28;20029;-89
2023/04/03 10:05:57;;;;;;;1.40;1.30;;;8.50;73.40;;;;;;5068231;28;20032;-86
2023/04/03 10:08:34;;;;;;;1.67;1.48;;;8.50;73.30;;;;;;5052014;28;20024;-85
2023/04/03 10:11:07;;;;;;;1.40;1.30;;;8.60;73.30;;;;;;5070493;28;20026;-86
2023/04/03 10:13:33;;;;;;;1.38;1.30;;;8.70;73.20;;;;;;5071804;28;20107;-86
2023/04/03 10:16:07;;;;;;;1.40;1.30;;;8.80;73.10;;;;;;5051353;28;20031;-85
2023/04/03 10:18:49;;;;;;;1.50;1.40;;;8.90;73.10;;;;;;5067019;28;20017;-85
2023/04/03 10:21:27;;;;;;;2.80;1.40;;;8.90;72.90;;;;;;5042272;28;20531;-86
2023/04/03 10:24:17;;;;;;;1.70;1.40;;;9.00;72.90;;;;;;5046931;28;20465;-86
2023/04/03 10:27:02;;;;;;;1.40;1.30;;;9.10;72.80;;;;;;5051397;28;20117;-85
2023/04/03 10:29:40;;;;;;;1.40;1.30;;;9.20;72.80;;;;;;5052037;28;20029;-89
2023/04/03 10:32:29;;;;;;;1.65;1.50;;;9.30;72.70;;;;;;5071324;28;20024;-88
2023/04/03 10:35:21;;;;;;;1.65;1.25;;;9.40;72.60;;;;;;5075488;28;20036;-91
2023/04/03 10:38:06;;;;;;;1.17;1.17;;;9.50;72.70;;;;;;5049409;28;20044;-90
2023/04/03 10:41:00;;;;;;;1.30;1.20;;;9.60;72.60;;;;;;5075185;28;20473;-92
2023/04/03 10:43:53;;;;;;;1.50;1.40;;;9.70;72.50;;;;;;5072321;28;20036;-90
2023/04/03 10:46:34;;;;;;;2.75;1.33;;;9.80;72.40;;;;;;5071568;28;20028;-90
2023/04/03 10:49:14;;;;;;;1.40;1.30;;;9.90;72.40;;;;;;5053288;28;20086;-91
2023/04/03 10:52:05;;;;;;;1.33;1.20;;;10.00;72.30;;;;;;5080824;28;20039;-93
2023/04/03 10:54:46;;;;;;;1.40;1.30;;;10.10;72.30;;;;;;5069711;28;20021;-96
2023/04/03 10:57:12;;;;;;;1.40;1.30;;;10.20;72.20;;;;;;5059124;28;20013;-96
2023/04/03 10:59:55;;;;;;;1.48;1.38;;;10.30;72.20;;;;;;5060781;28;20048;-93
2023/04/03 11:02:37;;;;;;;1.98;1.48;;;10.40;72.20;;;;;;5055659;28;20005;-93
2023/04/03 11:05:33;;;;;;;1.42;1.20;;;10.40;72.10;;;;;;5051881;28;20052;-95
2023/04/03 11:08:05;;;;;;;1.40;1.30;;;10.50;72.00;;;;;;5051689;28;20050;-91
2023/04/03 11:10:41;;;;;;;1.38;1.20;;;10.60;72.00;;;;;;5062500;28;20024;-91
2023/04/03 11:13:13;;;;;;;1.27;1.20;;;10.70;72.00;;;;;;5061570;28;20096;-90
2023/04/03 11:15:45;;;;;;;1.40;1.30;;;10.80;71.90;;;;;;5076212;28;20083;-94
2023/04/03 11:18:22;;;;;;;1.40;1.20;;;10.90;71.80;;;;;;5061129;28;20024;-90
2023/04/03 11:21:06;;;;;;;1.30;1.20;;;11.00;71.80;;;;;;5056273;28;20029;-91
2023/04/03 11:23:39;;;;;;;1.40;1.30;;;11.10;71.80;;;;;;5073637;28;20035;-89
2023/04/03 11:26:18;;;;;;;1.35;1.25;;;11.20;71.70;;;;;;5065052;28;20045;-90
2023/04/03 11:28:45;;;;;;;1.40;1.30;;;11.20;71.70;;;;;;5070773;28;20025;-90
2023/04/03 11:31:43;;;;;;;1.23;1.13;;;11.30;71.70;;;;;;5053111;28;20033;-89
2023/04/03 11:34:12;;;;;;;1.00;1.00;;;11.40;71.80;;;;;;5071691;28;20060;-90
2023/04/03 11:36:48;;;;;;;1.30;1.20;;;11.40;72.20;;;;;;5054297;28;20044;-90
2023/04/03 11:39:30;;;;;;;1.30;1.20;;;11.50;71.70;;;;;;5072803;28;20067;-89
2023/04/03 11:42:12;;;;;;;1.40;1.30;;;11.60;71.70;;;;;;5070790;28;20021;-88
2023/04/03 11:44:39;;;;;;;1.25;1.15;;;11.60;71.60;;;;;;5057218;28;20087;-86
2023/04/03 11:47:07;;;;;;;2.20;1.40;;;11.70;71.60;;;;;;5071605;28;20029;-91
2023/04/03 11:50:01;;;;;;;1.50;1.23;;;11.80;71.60;;;;;;5055362;28;20029;-87
2023/04/03 11:52:39;;;;;;;2.88;1.50;;;11.80;71.50;;;;;;5064779;28;20033;-88
2023/04/03 11:55:23;;;;;;;1.67;1.23;;;11.90;71.50;;;;;;5050363;28;20457;-87
2023/04/03 11:57:58;;;;;;;1.40;1.30;;;11.90;71.40;;;;;;5063144;28;20025;-86
2023/04/03 12:00:42;;;;;;;;;;;12.00;71.40;;;;;;5069342;28;20042;-87
2023/04/03 12:03:26;;;;;;;1.08;1.08;;;12.00;72.20;;;;;;5064956;28;19909;-86
2023/04/03 12:06:16;;;;;;;1.33;1.23;;;12.00;71.40;;;;;;5065757;28;20029;-86
2023/04/03 12:08:42;;;;;;;1.30;1.20;;;12.10;71.40;;;;;;5060690;28;20032;-87
2023/04/03 12:13:39;;;;;;;1.52;1.15;;;12.20;71.30;;;;;;5068177;28;20021;-87
2023/04/03 12:16:28;;;;;;;2.35;1.30;;;12.20;71.30;;;;;;5060266;28;20029;-86
2023/04/03 12:19:03;;;;;;;2.30;1.10;;;12.30;71.40;;;;;;5052050;28;20020;-87
2023/04/03 12:21:29;;;;;;;1.25;1.20;;;12.30;71.30;;;;;;5068165;28;20028;-87
2023/04/03 12:24:26;;;;;;;1.50;1.33;;;12.30;71.30;;;;;;5072059;28;20025;-87
2023/04/03 12:27:01;;;;;;;1.33;1.23;;;12.30;71.30;;;;;;5065477;28;20039;-87
2023/04/03 12:29:38;;;;;;;1.00;1.00;;;12.40;71.30;;;;;;5054448;28;20548;-87
2023/04/03 12:32:26;;;;;;;1.27;1.17;;;12.40;71.40;;;;;;5059626;28;20025;-87
2023/04/03 12:35:17;;;;;;;1.40;1.30;;;12.50;71.40;;;;;;5046024;28;20025;-88
2023/04/03 12:38:20;;;;;;;1.10;1.10;;;12.50;71.40;;;;;;5068973;28;20028;-87
2023/04/03 12:41:15;;;;;;;1.48;1.35;;;12.50;71.60;;;;;;5067876;28;20033;-87
2023/04/03 12:44:01;;;;;;;1.58;1.20;;;12.50;71.60;;;;;;5056702;28;20053;-87
2023/04/03 12:46:45;;;;;;;2.00;1.40;;;12.60;71.50;;;;;;5061725;28;20078;-87
2023/04/03 12:49:20;;;;;;;1.35;1.20;;;12.60;71.50;;;;;;5052409;28;20020;-87
2023/04/03 12:51:47;;;;;;;1.33;1.23;;;12.70;71.60;;;;;;5048973;28;20032;-86
2023/04/03 12:54:21;;;;;;;1.30;1.20;;;12.70;71.60;;;;;;5037285;28;20337;-87
2023/04/03 12:56:47;;;;;;;1.80;1.20;;;12.70;71.50;;;;;;5068524;28;20043;-89
2023/04/03 12:59:21;;;;;;;1.38;1.20;;;12.70;71.50;;;;;;5052256;28;20024;-90
2023/04/03 13:01:58;;;;;;;1.57;1.30;;;12.80;71.50;;;;;;5063521;28;20032;-90
2023/04/03 13:04:25;;;;;;;1.30;1.20;;;12.80;71.50;;;;;;5070506;28;20327;-88
2023/04/03 13:06:51;;;;;;;1.63;1.10;;;12.90;71.50;;;;;;5051127;28;20025;-89
2023/04/03 13:09:21;;;;;;;1.20;1.10;;;12.90;71.40;;;;;;5065813;28;20044;-90
2023/04/03 13:11:49;;;;;;;2.72;1.40;;;12.90;71.40;;;;;;5053392;28;20556;-88
2023/04/03 13:14:18;;;;;;;1.17;1.17;;;13.00;71.40;;;;;;5071648;28;20039;-87
2023/04/03 13:17:02;;;;;;;2.53;1.30;;;13.00;71.40;;;;;;5052904;28;20115;-88
2023/04/03 13:19:28;;;;;;;1.38;1.27;;;13.00;71.30;;;;;;5070293;28;20032;-88